Time;durP1;ratioP1;P1;durP2;ratioP2;P2;SDS_P1;SDS_P2;PMS_P1;PMS_P2;Temp;Humidity;BMP_temperature;BMP_pressure;BME280_temperature;BME280_humidity;BME280_pressure;Samples;Min_cycle;Max_cycle;Signal;HPM_P1;HPM_P2
2022/11/27 00:05:17;;;;;;;3.72;0.80;;;;;;;18.90;44.75;102412.16;16116069;19;130077;-41
2022/11/27 00:10:38;;;;;;;1.77;0.73;;;;;;;18.88;44.43;102405.97;16114483;19;129652;-39
2022/11/27 00:16:00;;;;;;;2.70;0.90;;;;;;;18.87;44.68;102395.94;16115293;19;129518;-41
2022/11/27 00:21:30;;;;;;;1.35;0.68;;;;;;;18.85;44.64;102386.97;16116798;19;133962;-39
2022/11/27 00:26:52;;;;;;;4.32;1.17;;;;;;;18.84;44.66;102372.28;16130122;19;129300;-43
2022/11/27 00:32:14;;;;;;;3.15;0.68;;;;;;;18.82;44.39;102368.84;16129040;19;129809;-38
2022/11/27 00:37:35;;;;;;;1.77;0.70;;;;;;;18.80;44.83;102345.19;16128977;19;129688;-39
2022/11/27 00:42:57;;;;;;;1.65;0.75;;;;;;;18.77;44.73;102347.31;16130495;19;132667;-38
2022/11/27 00:48:19;;;;;;;1.88;0.70;;;;;;;18.74;44.53;102325.56;16130359;19;129720;-38
2022/11/27 00:53:41;;;;;;;1.42;0.60;;;;;;;18.72;44.70;102316.59;16126828;19;129571;-38
2022/11/27 00:59:04;;;;;;;2.63;0.80;;;;;;;18.72;44.47;102310.22;16126240;19;129952;-38
2022/11/27 01:04:26;;;;;;;2.00;0.60;;;;;;;18.70;44.51;102284.63;16126585;19;129955;-38
2022/11/27 01:09:48;;;;;;;1.38;0.70;;;;;;;18.67;44.19;102302.53;16126454;19;129992;-38
2022/11/27 01:15:10;;;;;;;1.30;0.60;;;;;;;18.66;44.26;102309.16;16125240;19;129654;-38
2022/11/27 01:20:32;;;;;;;1.25;0.68;;;;;;;18.65;44.37;102314.88;16123553;19;129630;-38
2022/11/27 01:25:53;;;;;;;1.65;0.70;;;;;;;18.64;44.10;102297.41;16124325;19;129302;-38
2022/11/27 01:31:19;;;;;;;0.90;0.50;;;;;;;18.61;44.22;102290.38;16123194;19;129435;-38
2022/11/27 01:36:41;;;;;;;;;;;;;;;18.57;44.07;102291.03;16123730;19;129422;-38
2022/11/27 01:42:03;;;;;;;0.82;0.50;;;;;;;18.57;44.13;102286.31;16126110;19;134506;-39
2022/11/27 01:47:31;;;;;;;2.28;0.63;;;;;;;18.56;43.95;102272.69;16120997;19;130144;-38
2022/11/27 01:52:58;;;;;;;2.30;0.70;;;;;;;18.54;43.86;102266.50;16124635;19;129659;-38
2022/11/27 01:58:24;;;;;;;1.52;0.60;;;;;;;18.52;43.98;102246.47;16122109;19;130205;-38
2022/11/27 02:03:46;;;;;;;1.05;0.57;;;;;;;18.51;44.07;102236.44;16126004;19;130986;-37
2022/11/27 02:09:07;;;;;;;1.88;0.70;;;;;;;18.51;43.65;102215.13;16122040;19;129734;-38
2022/11/27 02:14:51;;;;;;;2.25;0.88;;;;;;;18.51;43.49;102203.19;16122220;19;129648;-37
2022/11/27 02:20:34;;;;;;;1.65;0.55;;;;;;;18.49;43.91;102202.53;16123441;19;129858;-38
2022/11/27 02:26:24;;;;;;;2.22;0.70;;;;;;;18.45;43.66;102197.44;16122658;19;129894;-38
2022/11/27 02:32:13;;;;;;;1.88;0.55;;;;;;;18.44;43.41;102205.94;16121635;19;130637;-38
2022/11/27 02:37:38;;;;;;;1.02;0.57;;;;;;;18.41;43.84;102207.25;16122288;19;133041;-38
2022/11/27 02:43:10;;;;;;;1.23;0.50;;;;;;;18.42;43.67;102205.31;16124075;19;130323;-38
2022/11/27 02:48:41;;;;;;;1.67;0.50;;;;;;;18.41;43.53;102210.00;16116365;19;130098;-38
2022/11/27 02:54:06;;;;;;;0.70;0.40;;;;;;;18.38;43.46;102210.41;16123759;19;136965;-38
2022/11/27 02:59:30;;;;;;;1.47;0.60;;;;;;;18.38;43.45;102227.03;16120297;19;129602;-38
2022/11/27 03:04:56;;;;;;;2.75;0.85;;;;;;;18.37;43.36;102205.91;16119387;19;129507;-38
2022/11/27 03:10:33;;;;;;;1.77;0.57;;;;;;;18.36;43.19;102201.44;16117191;19;134097;-37
2022/11/27 03:16:16;;;;;;;1.77;0.55;;;;;;;18.37;43.13;102182.91;16118704;19;130140;-37
2022/11/27 03:21:41;;;;;;;1.15;0.50;;;;;;;18.33;43.38;102190.81;16120029;19;134098;-38
2022/11/27 03:27:04;;;;;;;0.93;0.47;;;;;;;18.32;43.40;102180.78;16116557;19;134800;-38
2022/11/27 03:32:27;;;;;;;1.33;0.52;;;;;;;18.31;43.27;102182.69;16115586;19;130988;-37
2022/11/27 03:37:50;;;;;;;1.10;0.40;;;;;;;18.30;43.07;102194.00;16117663;19;129334;-38
2022/11/27 03:43:21;;;;;;;2.08;0.57;;;;;;;18.31;43.35;102195.72;16116709;19;129498;-38
2022/11/27 03:48:49;;;;;;;0.70;0.40;;;;;;;18.30;42.79;102196.78;16116804;19;129615;-38
2022/11/27 03:54:19;;;;;;;1.70;0.60;;;;;;;18.29;43.00;102195.06;16116289;19;129652;-38
2022/11/27 03:59:43;;;;;;;0.90;0.40;;;;;;;18.27;43.21;102203.59;16128503;19;129673;-38
2022/11/27 04:05:05;;;;;;;0.70;0.40;;;;;;;18.27;42.94;102186.97;16132174;19;129338;-38
2022/11/27 04:10:27;;;;;;;1.05;0.52;;;;;;;18.27;42.67;102180.56;16130324;19;130235;-38
2022/11/27 04:15:49;;;;;;;1.00;0.50;;;;;;;18.24;42.59;102176.31;16130562;19;129705;-39
2022/11/27 04:21:11;;;;;;;0.55;0.35;;;;;;;18.24;42.84;102192.94;16130568;19;130225;-38
2022/11/27 04:26:33;;;;;;;0.80;0.50;;;;;;;18.25;42.48;102185.47;16130334;19;130506;-38
2022/11/27 04:31:55;;;;;;;1.50;0.47;;;;;;;18.24;42.90;102181.00;16129769;19;129449;-38
2022/11/27 04:37:16;;;;;;;0.43;0.30;;;;;;;18.23;42.77;102171.84;16126432;19;130018;-38
2022/11/27 04:42:38;;;;;;;0.98;0.55;;;;;;;18.21;42.46;102165.66;16128478;19;129934;-38
2022/11/27 04:48:00;;;;;;;0.50;0.30;;;;;;;18.21;42.79;102164.81;16129485;19;129659;-37
2022/11/27 04:53:21;;;;;;;0.98;0.45;;;;;;;18.20;42.87;102157.56;16126887;19;129246;-38
2022/11/27 04:58:43;;;;;;;1.30;0.60;;;;;;;18.19;42.81;102150.31;16124973;19;130871;-38
2022/11/27 05:04:05;;;;;;;0.85;0.40;;;;;;;18.18;42.70;102143.91;16126056;19;129658;-38
2022/11/27 05:09:27;;;;;;;0.30;0.30;;;;;;;18.18;42.73;102141.16;16122610;19;129932;-38
2022/11/27 05:14:48;;;;;;;0.45;0.35;;;;;;;18.17;42.42;102146.91;16126294;19;128997;-38
2022/11/27 05:20:10;;;;;;;0.30;0.30;;;;;;;18.15;42.78;102136.06;16127231;19;130673;-37
2022/11/27 05:25:32;;;;;;;1.52;0.65;;;;;;;18.15;42.71;102123.03;16122967;19;129994;-38
2022/11/27 05:30:53;;;;;;;0.50;0.30;;;;;;;18.14;42.69;102118.56;16124275;19;129503;-38
2022/11/27 05:36:15;;;;;;;1.02;0.30;;;;;;;18.13;42.52;102119.63;16120681;19;129543;-38
2022/11/27 05:41:39;;;;;;;0.82;0.50;;;;;;;18.12;42.26;102104.06;16124121;19;129521;-38
2022/11/27 05:47:01;;;;;;;1.17;0.55;;;;;;;18.10;42.27;102095.13;16123349;19;129698;-38
2022/11/27 05:52:23;;;;;;;0.60;0.25;;;;;;;18.10;42.56;102086.81;16120955;19;129692;-38
2022/11/27 05:57:44;;;;;;;0.70;0.50;;;;;;;18.10;42.19;102077.69;16122357;19;130081;-38
2022/11/27 06:03:06;;;;;;;0.30;0.30;;;;;;;18.09;42.55;102068.50;16120104;19;129275;-38
2022/11/27 06:08:28;;;;;;;1.95;0.52;;;;;;;18.08;42.55;102052.97;16119598;19;129733;-37
2022/11/27 06:13:50;;;;;;;0.65;0.30;;;;;;;18.08;42.05;102050.22;16122178;19;129737;-38
2022/11/27 06:19:12;;;;;;;1.10;0.43;;;;;;;18.07;42.20;102054.03;16119280;19;129587;-37
2022/11/27 06:24:34;;;;;;;0.95;0.45;;;;;;;18.07;42.42;102036.56;16121717;19;129490;-37
2022/11/27 06:29:55;;;;;;;1.00;0.40;;;;;;;18.06;42.20;102034.84;16119132;19;129522;-39
2022/11/27 06:35:17;;;;;;;1.48;0.40;;;;;;;18.05;41.90;102022.94;16118229;19;130633;-38
2022/11/27 06:40:39;;;;;;;0.80;0.30;;;;;;;18.19;42.44;102020.16;16121404;19;129087;-38
2022/11/27 06:46:02;;;;;;;0.80;0.40;;;;;;;18.63;42.01;102006.59;16122039;19;129581;-38
2022/11/27 06:51:25;;;;;;;0.65;0.30;;;;;;;19.19;41.13;102007.78;16115974;19;130471;-38
2022/11/27 06:56:50;;;;;;;3.03;0.50;;;;;;;19.59;40.51;102004.72;16118767;19;129760;-38
2022/11/27 07:02:15;;;;;;;2.83;0.50;;;;;;;19.82;40.05;101989.34;16117347;19;130163;-38
2022/11/27 07:07:37;;;;;;;2.10;0.60;;;;;;;19.90;40.34;101977.97;16119016;19;129503;-38
2022/11/27 07:13:04;;;;;;;1.30;0.52;;;;;;;19.89;40.41;101979.03;16114201;19;129585;-38
2022/11/27 07:18:26;;;;;;;1.73;0.60;;;;;;;19.83;40.00;101968.81;16115591;19;129054;-38
2022/11/27 07:23:48;;;;;;;4.50;0.75;;;;;;;19.75;40.17;101969.13;16119170;19;130034;-38
2022/11/27 07:29:10;;;;;;;4.35;0.68;;;;;;;19.63;40.77;101975.44;16115330;19;130454;-38
2022/11/27 07:34:32;;;;;;;2.70;0.40;;;;;;;19.52;40.45;101965.09;16129184;19;131145;-40
2022/11/27 07:39:53;;;;;;;4.35;0.60;;;;;;;19.40;40.83;101956.63;16136745;19;129423;-38
2022/11/27 07:45:23;;;;;;;4.68;0.50;;;;;;;19.31;40.99;101958.00;16130698;19;129628;-39
2022/11/27 07:50:45;;;;;;;2.42;0.40;;;;;;;19.22;41.34;101954.63;16130532;19;129512;-38
2022/11/27 07:56:14;;;;;;;2.25;0.40;;;;;;;19.14;41.34;101952.13;16129691;19;129642;-38
2022/11/27 08:01:35;;;;;;;3.20;0.50;;;;;;;19.05;41.53;101957.09;16131537;19;129330;-38
2022/11/27 08:06:57;;;;;;;0.45;0.40;;;;;;;18.98;41.40;101948.81;16130787;19;129388;-38
2022/11/27 08:12:19;;;;;;;1.65;0.68;;;;;;;18.91;41.71;101953.56;16131309;19;129544;-38
2022/11/27 08:17:41;;;;;;;2.83;0.50;;;;;;;18.86;41.64;101945.91;16132224;19;130009;-38
2022/11/27 08:23:03;;;;;;;2.50;0.55;;;;;;;18.81;41.52;101954.03;16131829;19;129916;-38
2022/11/27 08:28:25;;;;;;;2.92;0.50;;;;;;;18.76;41.67;101948.34;16126994;19;130744;-38
2022/11/27 08:33:46;;;;;;;1.77;0.60;;;;;;;18.73;41.79;101946.00;16123936;19;129337;-37
2022/11/27 08:39:08;;;;;;;0.50;0.43;;;;;;;18.70;42.04;101938.97;16127954;19;129598;-38
2022/11/27 08:44:30;;;;;;;5.03;0.60;;;;;;;18.68;41.86;101941.13;16124662;19;129797;-38
2022/11/27 08:49:52;;;;;;;1.23;0.60;;;;;;;18.65;42.06;101933.25;16127864;19;131041;-38
2022/11/27 08:55:14;;;;;;;7.35;0.80;;;;;;;18.64;41.96;101926.00;16126264;19;129818;-37
2022/11/27 09:00:36;;;;;;;4.05;0.60;;;;;;;18.64;41.44;101919.63;16127023;19;129138;-37
2022/11/27 09:05:58;;;;;;;6.63;0.77;;;;;;;18.66;41.49;101921.09;16126115;19;130300;-37
2022/11/27 09:11:20;;;;;;;9.02;0.93;;;;;;;18.69;41.61;101917.88;16124270;19;129515;-37
2022/11/27 09:16:42;;;;;;;4.28;0.80;;;;;;;18.69;41.71;101917.00;16128306;19;129501;-38
2022/11/27 09:22:04;;;;;;;2.38;0.60;;;;;;;18.67;41.65;101914.47;16125307;19;130000;-38
2022/11/27 09:27:26;;;;;;;4.68;0.98;;;;;;;18.65;41.95;101913.84;16124247;19;129647;-37
2022/11/27 09:32:48;;;;;;;6.15;0.80;;;;;;;18.62;41.74;101911.50;16126573;19;131359;-37
2022/11/27 09:38:09;;;;;;;3.85;0.50;;;;;;;18.58;41.69;101908.34;16125394;19;129592;-37
2022/11/27 09:43:39;;;;;;;3.95;0.70;;;;;;;18.56;41.71;101904.09;16121771;19;130510;-38
2022/11/27 09:49:06;;;;;;;2.88;0.70;;;;;;;18.53;42.02;101901.75;16123649;19;131297;-37
2022/11/27 09:54:28;;;;;;;3.05;0.75;;;;;;;18.50;42.11;101902.19;16122359;19;130542;-38
2022/11/27 09:59:51;;;;;;;5.45;0.93;;;;;;;18.45;41.97;101889.88;16124752;19;129174;-37
2022/11/27 10:05:25;;;;;;;2.13;0.80;;;;;;;18.44;41.85;101882.63;16125508;19;131063;-37
2022/11/27 10:11:05;;;;;;;1.75;0.60;;;;;;;18.42;41.96;101879.22;16124899;19;129990;-37
2022/11/27 10:17:06;;;;;;;2.22;0.70;;;;;;;18.36;41.94;101857.91;16117755;19;129930;-37
2022/11/27 10:23:13;;;;;;;2.75;0.60;;;;;;;18.36;42.11;101844.06;16204967;19;129057;-38
2022/11/27 10:28:50;;;;;;;4.47;0.70;;;;;;;18.33;42.04;101846.44;16196637;19;129560;-37
2022/11/27 10:34:47;;;;;;;4.88;0.80;;;;;;;18.30;42.52;101837.47;16195130;19;129688;-37
2022/11/27 10:40:08;;;;;;;;;;;;;;;18.24;42.19;101827.31;16195046;19;129606;-37
2022/11/27 10:45:37;;;;;;;2.85;0.80;;;;;;;18.28;42.18;101822.16;16194419;19;129252;-37
2022/11/27 10:50:59;;;;;;;3.35;1.33;;;;;;;18.24;42.68;101815.38;16190674;19;130205;-37
2022/11/27 10:56:49;;;;;;;1.42;0.63;;;;;;;18.27;42.61;101801.06;16192534;19;129966;-37
2022/11/27 11:02:43;;;;;;;4.45;0.70;;;;;;;18.24;42.58;101783.00;16185038;19;130539;-37
2022/11/27 11:08:16;;;;;;;2.85;0.80;;;;;;;18.27;42.21;101781.69;16180254;19;129580;-37
2022/11/27 11:13:40;;;;;;;3.72;0.68;;;;;;;18.26;42.67;101774.44;16183458;19;129801;-38
2022/11/27 11:19:04;;;;;;;2.28;0.80;;;;;;;18.25;42.44;101765.31;16186424;19;129156;-37
2022/11/27 11:24:31;;;;;;;2.90;0.70;;;;;;;18.26;42.26;101774.44;16187247;19;129811;-38
2022/11/27 11:30:01;;;;;;;1.85;0.70;;;;;;;18.25;42.54;101756.13;16170746;19;130033;-37
2022/11/27 11:35:33;;;;;;;3.33;0.80;;;;;;;18.27;42.33;101742.91;16120419;19;130120;-38
2022/11/27 11:41:01;;;;;;;2.85;0.80;;;;;;;18.24;42.37;101715.66;16125922;19;129895;-38
2022/11/27 11:46:27;;;;;;;3.55;0.70;;;;;;;18.23;42.52;101702.88;16125361;19;129466;-38
2022/11/27 11:51:49;;;;;;;3.75;1.00;;;;;;;18.23;42.76;101689.03;16127379;19;129401;-37
2022/11/27 11:57:41;;;;;;;2.70;0.85;;;;;;;18.26;42.82;101702.44;16128538;19;130362;-39
2022/11/27 12:03:22;;;;;;;3.63;0.75;;;;;;;18.24;42.73;101693.50;16128565;19;129715;-37
2022/11/27 12:08:52;;;;;;;1.75;0.85;;;;;;;18.22;42.84;101673.47;16126515;19;129758;-38
2022/11/27 12:14:33;;;;;;;2.95;0.90;;;;;;;18.23;42.74;101675.19;16124480;19;132439;-39
2022/11/27 12:20:32;;;;;;;5.45;1.13;;;;;;;18.25;42.77;101661.97;16126326;19;135053;-49
2022/11/27 12:26:18;;;;;;;4.38;1.08;;;;;;;18.44;43.26;101660.97;16126234;19;129809;-46
2022/11/27 12:31:40;;;;;;;2.80;0.70;;;;;;;18.77;43.01;101645.94;16127835;19;129582;-38
2022/11/27 12:37:27;;;;;;;8.85;0.88;;;;;;;19.15;42.45;101637.63;16124640;19;129393;-40
2022/11/27 12:43:08;;;;;;;;;;;;;;;19.33;42.01;101622.91;16122166;19;129396;-40
2022/11/27 12:48:35;;;;;;;3.00;0.77;;;;;;;19.47;41.48;101618.88;16126618;19;132222;-47
2022/11/27 12:54:15;;;;;;;10.10;0.90;;;;;;;19.52;41.53;101615.38;16123862;19;129593;-45
2022/11/27 12:59:42;;;;;;;5.68;0.80;;;;;;;19.52;41.48;101605.13;16125570;19;129483;-45
2022/11/27 13:05:06;;;;;;;4.68;0.65;;;;;;;19.52;41.85;101601.50;16122988;19;129815;-40
2022/11/27 13:10:31;;;;;;;1.42;0.50;;;;;;;19.51;41.72;101591.50;16107701;19;130906;-48
2022/11/27 13:16:17;;;;;;;4.87;0.90;;;;;;;19.44;41.53;101585.19;16119410;19;130489;-42
2022/11/27 13:21:41;;;;;;;3.65;0.60;;;;;;;19.38;41.75;101590.59;16143643;19;129790;-44
2022/11/27 13:27:17;;;;;;;4.47;0.70;;;;;;;19.44;41.92;101580.47;16125987;19;131076;-41
2022/11/27 13:32:45;;;;;;;2.33;0.70;;;;;;;19.63;41.53;101558.22;16118502;19;129903;-40
2022/11/27 13:38:21;;;;;;;2.15;0.90;;;;;;;19.86;41.32;101559.34;16121409;19;130345;-39
2022/11/27 13:43:45;;;;;;;2.08;0.90;;;;;;;19.99;41.40;101543.31;16122605;19;130189;-47
2022/11/27 13:49:07;;;;;;;2.00;0.80;;;;;;;20.15;41.28;101540.94;16118772;19;130372;-42
2022/11/27 13:54:29;;;;;;;1.20;0.70;;;;;;;20.29;40.87;101545.16;16102206;19;130200;-43
2022/11/27 14:00:12;;;;;;;1.33;0.57;;;;;;;20.37;40.38;101537.53;16104785;19;129321;-43
2022/11/27 14:05:44;;;;;;;9.02;0.73;;;;;;;20.34;40.26;101538.88;16096903;19;131075;-45
2022/11/27 14:11:11;;;;;;;3.05;0.70;;;;;;;20.29;40.58;101535.97;16097710;19;131079;-41
2022/11/27 14:16:34;;;;;;;3.05;0.55;;;;;;;20.21;40.79;101528.00;16118070;19;129599;-40
2022/11/27 14:21:56;;;;;;;4.90;0.80;;;;;;;20.10;40.77;101508.31;16118677;19;129778;-40
2022/11/27 14:27:24;;;;;;;0.55;0.50;;;;;;;20.01;40.87;101501.41;16117501;19;129728;-40
2022/11/27 14:32:47;;;;;;;3.00;0.80;;;;;;;19.91;41.17;101495.59;16117606;19;129771;-42
2022/11/27 14:38:10;;;;;;;2.95;0.77;;;;;;;19.82;41.32;101486.78;16118651;19;130313;-40
2022/11/27 14:43:32;;;;;;;2.42;0.80;;;;;;;19.81;41.26;101479.56;16118600;19;130266;-39
2022/11/27 14:48:57;;;;;;;3.92;0.95;;;;;;;19.87;40.78;101461.91;16115451;19;129506;-39
2022/11/27 14:54:24;;;;;;;0.75;0.60;;;;;;;20.07;40.97;101471.81;16116169;19;129801;-41
2022/11/27 14:59:46;;;;;;;1.88;0.80;;;;;;;20.32;40.43;101456.81;16117195;19;130739;-39
2022/11/27 15:05:25;;;;;;;1.65;0.60;;;;;;;20.58;40.07;101441.53;16119641;19;129435;-40
2022/11/27 15:10:51;;;;;;;0.75;0.55;;;;;;;20.81;40.27;101437.81;16130458;19;129538;-42
2022/11/27 15:16:18;;;;;;;1.65;0.80;;;;;;;21.04;39.96;101434.09;16130270;19;129596;-41
2022/11/27 15:21:40;;;;;;;1.00;0.70;;;;;;;21.20;39.51;101423.25;16131944;19;129708;-42
2022/11/27 15:27:14;;;;;;;3.15;0.68;;;;;;;21.31;39.18;101429.81;16127893;19;129508;-40
2022/11/27 15:32:50;;;;;;;4.65;0.63;;;;;;;21.32;39.38;101420.38;16128465;19;130982;-41
2022/11/27 15:38:17;;;;;;;2.05;0.60;;;;;;;21.27;39.06;101395.25;16120594;19;130543;-41
2022/11/27 15:43:38;;;;;;;1.92;0.60;;;;;;;21.20;39.24;101401.81;16122783;19;129969;-39
2022/11/27 15:49:00;;;;;;;4.82;1.02;;;;;;;21.15;39.30;101385.06;16125089;19;130218;-43
2022/11/27 15:54:23;;;;;;;4.55;1.08;;;;;;;21.05;39.13;101382.94;16118040;19;129814;-42
2022/11/27 15:59:45;;;;;;;2.83;0.73;;;;;;;20.90;39.42;101372.38;16123990;19;129868;-39
2022/11/27 16:05:07;;;;;;;3.60;0.80;;;;;;;20.80;39.59;101368.56;16124910;19;129321;-41
2022/11/27 16:10:29;;;;;;;4.65;1.08;;;;;;;20.68;39.88;101365.81;16125089;19;129690;-38
2022/11/27 16:15:52;;;;;;;3.53;0.88;;;;;;;20.59;39.90;101359.84;16124845;19;130255;-42
2022/11/27 16:21:16;;;;;;;1.45;0.70;;;;;;;20.49;40.23;101351.31;16121170;19;129599;-43
2022/11/27 16:26:37;;;;;;;4.10;1.10;;;;;;;20.39;39.95;101343.59;16122781;19;130524;-42
2022/11/27 16:32:00;;;;;;;1.63;0.90;;;;;;;20.31;40.22;101328.16;16119908;19;129716;-39
2022/11/27 16:37:22;;;;;;;3.90;1.05;;;;;;;20.23;40.55;101323.84;16122258;19;130057;-43
2022/11/27 16:42:44;;;;;;;3.55;0.90;;;;;;;20.17;40.66;101322.06;16121834;19;129825;-40
2022/11/27 16:48:06;;;;;;;2.38;0.80;;;;;;;20.11;40.73;101309.16;16121064;19;130665;-42
2022/11/27 16:53:27;;;;;;;2.15;0.80;;;;;;;20.04;40.70;101308.47;16120166;19;129391;-41
2022/11/27 16:58:50;;;;;;;2.83;0.80;;;;;;;19.98;40.98;101302.78;16122571;19;134905;-40
2022/11/27 17:04:19;;;;;;;2.08;0.70;;;;;;;19.92;40.62;101298.22;16122523;19;129798;-43
2022/11/27 17:09:41;;;;;;;1.73;0.85;;;;;;;19.85;40.72;101286.38;16120436;19;129917;-40
2022/11/27 17:15:03;;;;;;;1.52;0.90;;;;;;;19.81;40.74;101274.94;16120299;19;130044;-41
2022/11/27 17:20:25;;;;;;;4.10;1.13;;;;;;;19.78;41.20;101269.88;16120269;19;130402;-43
2022/11/27 17:25:47;;;;;;;5.82;1.10;;;;;;;19.75;41.21;101250.97;16122422;19;129385;-42
2022/11/27 17:31:11;;;;;;;3.60;0.90;;;;;;;19.76;41.13;101249.84;16116805;19;129892;-40
2022/11/27 17:36:34;;;;;;;2.23;0.90;;;;;;;19.75;41.21;101241.75;16121429;19;130189;-40
2022/11/27 17:41:57;;;;;;;7.28;0.98;;;;;;;19.74;41.36;101234.53;16116908;19;129200;-40
2022/11/27 17:47:19;;;;;;;5.28;1.02;;;;;;;19.72;41.30;101236.69;16121741;19;129894;-39
2022/11/27 17:52:41;;;;;;;25.33;2.00;;;;;;;19.66;41.20;101228.28;16117486;19;129513;-39
2022/11/27 17:58:03;;;;;;;10.13;1.83;;;;;;;19.77;40.67;101217.38;16119476;19;128995;-43
2022/11/27 18:03:27;;;;;;;12.05;1.33;;;;;;;19.97;40.62;101215.00;16110962;19;131638;-39
2022/11/27 18:08:49;;;;;;;14.32;1.10;;;;;;;20.21;40.76;101203.78;16120231;19;129904;-39
2022/11/27 18:14:12;;;;;;;5.53;1.38;;;;;;;20.41;40.76;101194.16;16115853;19;129470;-39
2022/11/27 18:19:34;;;;;;;9.15;1.48;;;;;;;20.50;40.19;101177.88;16119259;19;130345;-42
2022/11/27 18:24:56;;;;;;;7.32;1.10;;;;;;;20.54;40.09;101168.78;16120630;19;129719;-42
2022/11/27 18:30:17;;;;;;;8.40;1.48;;;;;;;20.55;40.15;101184.38;16119807;19;131334;-38
2022/11/27 18:35:41;;;;;;;26.83;2.40;;;;;;;20.61;40.55;101185.31;16118265;19;129822;-40
2022/11/27 18:41:08;;;;;;;19.95;1.90;;;;;;;20.75;40.50;101178.31;16122552;19;129900;-44
2022/11/27 18:46:30;;;;;;;16.90;2.78;;;;;;;20.89;40.24;101173.25;16132085;19;129500;-40
2022/11/27 18:51:53;;;;;;;17.35;2.38;;;;;;;20.98;39.77;101172.78;16131208;19;130005;-41
2022/11/27 18:57:14;;;;;;;25.38;2.03;;;;;;;21.05;39.52;101170.66;16131973;19;133936;-39
2022/11/27 19:02:36;;;;;;;14.63;1.80;;;;;;;21.10;39.76;101162.41;16130589;19;130288;-39
2022/11/27 19:08:03;;;;;;;16.27;1.67;;;;;;;21.14;39.47;101152.44;16131598;19;129455;-39
2022/11/27 19:13:25;;;;;;;15.82;2.08;;;;;;;21.13;39.96;101133.22;16130022;19;129762;-39
2022/11/27 19:18:47;;;;;;;10.15;1.75;;;;;;;21.09;39.96;101115.38;16131737;19;130097;-39
2022/11/27 19:24:10;;;;;;;10.75;1.60;;;;;;;21.00;40.06;101109.41;16130613;19;129668;-39
2022/11/27 19:29:31;;;;;;;4.47;1.40;;;;;;;20.89;39.73;101103.72;16130805;19;130529;-40
2022/11/27 19:34:53;;;;;;;7.65;1.33;;;;;;;20.78;40.29;101099.13;16127524;19;130776;-41
2022/11/27 19:40:16;;;;;;;7.70;1.70;;;;;;;20.67;40.38;101098.09;16126125;19;131505;-38
2022/11/27 19:45:37;;;;;;;4.35;1.17;;;;;;;20.63;40.74;101087.75;16123783;19;129412;-39
2022/11/27 19:51:00;;;;;;;7.63;1.20;;;;;;;20.65;40.67;101077.22;16124978;19;130020;-41
2022/11/27 19:56:25;;;;;;;5.88;1.48;;;;;;;20.77;40.39;101066.84;16126795;19;129557;-40
2022/11/27 20:01:47;;;;;;;4.80;1.20;;;;;;;20.98;40.54;101064.31;16125293;19;129311;-41
2022/11/27 20:07:09;;;;;;;5.03;1.45;;;;;;;21.20;39.82;101073.50;16124682;19;129577;-40
2022/11/27 20:12:35;;;;;;;1.85;0.80;;;;;;;21.46;39.90;101070.16;16126908;19;130608;-39
2022/11/27 20:17:56;;;;;;;9.05;1.38;;;;;;;21.68;39.42;101050.63;16124532;19;129565;-43
2022/11/27 20:23:18;;;;;;;11.25;1.27;;;;;;;21.90;39.49;101035.81;16124295;19;129989;-40
2022/11/27 20:28:41;;;;;;;4.63;0.93;;;;;;;22.05;39.59;101033.13;16123665;19;130482;-39
2022/11/27 20:34:04;;;;;;;4.75;1.00;;;;;;;22.17;39.35;101020.94;16122961;19;129727;-40
2022/11/27 20:39:27;;;;;;;4.40;0.75;;;;;;;22.25;39.00;101021.31;16122641;19;130073;-40
2022/11/27 20:44:49;;;;;;;5.57;0.95;;;;;;;22.23;38.90;101019.91;16122726;19;129558;-39
2022/11/27 20:50:10;;;;;;;8.70;1.05;;;;;;;22.16;39.11;101017.31;16123699;19;129694;-41
2022/11/27 20:55:33;;;;;;;3.75;0.90;;;;;;;22.09;39.25;101016.72;16127296;19;129682;-41
2022/11/27 21:00:58;;;;;;;7.35;1.38;;;;;;;22.02;39.40;101016.97;16122892;19;135701;-53
2022/11/27 21:06:23;;;;;;;5.50;0.90;;;;;;;21.95;39.51;100988.47;16118803;19;129597;-45
2022/11/27 21:11:46;;;;;;;8.32;1.67;;;;;;;21.83;39.93;100981.16;16120789;19;129268;-52
2022/11/27 21:17:08;;;;;;;2.90;1.00;;;;;;;21.72;39.52;100973.81;16120445;19;129543;-49
2022/11/27 21:22:31;;;;;;;4.97;0.90;;;;;;;21.61;39.78;100977.63;16122311;19;133288;-47
2022/11/27 21:27:54;;;;;;;12.90;1.70;;;;;;;21.46;39.89;100965.22;16123875;19;129802;-48
2022/11/27 21:33:16;;;;;;;6.45;1.30;;;;;;;21.31;40.05;100945.59;16120337;19;130082;-53
2022/11/27 21:38:38;;;;;;;6.22;1.02;;;;;;;21.16;39.99;100949.94;16123543;19;129400;-48
2022/11/27 21:44:01;;;;;;;2.92;1.15;;;;;;;21.03;40.18;100948.41;16122233;19;130081;-42
2022/11/27 21:49:23;;;;;;;4.10;1.10;;;;;;;20.92;40.46;100931.91;16124672;19;129925;-39
2022/11/27 21:54:45;;;;;;;3.40;0.80;;;;;;;20.81;40.34;100928.16;16123674;19;129510;-43
2022/11/27 22:00:07;;;;;;;3.50;0.90;;;;;;;20.71;40.54;100928.84;16124081;19;130171;-47
2022/11/27 22:05:29;;;;;;;9.10;0.90;;;;;;;20.60;40.98;100923.16;16121020;19;129602;-52
2022/11/27 22:10:51;;;;;;;1.48;0.60;;;;;;;20.51;40.72;100921.94;16120557;19;130306;-39
2022/11/27 22:16:19;;;;;;;2.30;0.82;;;;;;;20.41;41.21;100916.28;16118726;19;129662;-39
2022/11/27 22:21:43;;;;;;;2.80;0.85;;;;;;;20.34;41.12;100913.69;16118647;19;129332;-38
2022/11/27 22:27:05;;;;;;;2.60;1.10;;;;;;;20.30;41.12;100909.72;16119105;19;129512;-39
2022/11/27 22:32:27;;;;;;;2.03;0.80;;;;;;;20.24;41.19;100902.44;16118791;19;130289;-39
2022/11/27 22:37:53;;;;;;;1.23;0.82;;;;;;;20.18;41.51;100896.00;16119368;19;129717;-38
2022/11/27 22:43:14;;;;;;;;;;;;;;;20.08;41.33;100906.94;16119768;19;136563;-39
2022/11/27 22:48:37;;;;;;;0.95;0.80;;;;;;;20.03;41.22;100902.16;16116471;19;129728;-39
2022/11/27 22:54:01;;;;;;;1.00;0.60;;;;;;;19.98;41.21;100905.66;16114563;19;130722;-39
2022/11/27 22:59:22;;;;;;;1.27;0.68;;;;;;;19.93;41.65;100907.53;16112197;19;129146;-39
2022/11/27 23:04:54;;;;;;;1.92;0.70;;;;;;;19.89;41.46;100906.34;16115264;19;129475;-38
2022/11/27 23:10:16;;;;;;;3.00;0.77;;;;;;;19.85;41.34;100906.03;16113049;19;129757;-38
2022/11/27 23:15:38;;;;;;;1.50;0.90;;;;;;;19.79;41.35;100898.75;16114477;19;130168;-39
2022/11/27 23:21:05;;;;;;;1.83;0.70;;;;;;;19.77;41.28;100896.19;16114674;19;129858;-41
2022/11/27 23:26:27;;;;;;;0.80;0.70;;;;;;;19.74;41.38;100896.72;16120760;19;130291;-39
2022/11/27 23:31:48;;;;;;;0.80;0.50;;;;;;;19.72;41.34;100889.72;16131999;19;129599;-39
2022/11/27 23:37:10;;;;;;;0.60;0.60;;;;;;;19.69;41.88;100886.38;16129061;19;130099;-41
2022/11/27 23:42:33;;;;;;;1.08;0.60;;;;;;;19.65;41.52;100899.09;16129037;19;130030;-38
2022/11/27 23:47:55;;;;;;;0.80;0.55;;;;;;;19.63;41.80;100892.94;16128641;19;129644;-39
2022/11/27 23:53:17;;;;;;;0.73;0.60;;;;;;;19.59;41.50;100900.09;16126352;19;129879;-38
2022/11/27 23:58:39;;;;;;;1.00;0.90;;;;;;;19.58;41.32;100898.41;16128339;19;130306;-38
